Decoded Metar for LFBG (COGNAC in FRANCE) (IATA:CNG) | Meteo·Mobile Aviation Weather
aviador You're here:

LFBG Decoded Metar

COGNAC in FRANCE
Report Time2019-01-18 12:00:00
UTC Time2019-01-18 12:09:39
Flight Rules lifr LIFR
WindVRB at 03 kt
Visibility6000 m
Phenomena:N/A
Clouds:Overcast 002 Hf
Ceiling200 ft
Temp04°C (ISA -11)
Dew Point04°C (100% RH)
AAT1.6°C
QNH1018 hPa
Density Alt-1,266 ft
Elevation102 ft
Report Wrong Elevation
Raw Report
METAR LFBG 181200Z AUTO VRB03KT 6000 OVC002 04/04 Q1018 BECMG SCT010=

Extra information for LFBG:More info

Metar Taf Metar & Taf Last 4 Metars F.Rules Stats Wind Profile Meteogram Temp Stats Airport Information Weather charts Add Link Nearby VenuesMetar ALERT Operation Metar Decoded Social comments